createdAt,value
2019-03-23T00:01:14.386Z,5.42
2019-03-23T00:03:41.231Z,5.03
2019-03-23T00:06:08.073Z,5.00
2019-03-23T00:08:34.927Z,4.35
2019-03-23T00:11:01.759Z,5.00
2019-03-23T00:13:28.603Z,4.30
2019-03-23T00:15:55.462Z,332.40
2019-03-23T00:18:22.289Z,6.08
2019-03-23T00:20:49.139Z,5.60
2019-03-23T00:23:15.977Z,57.83
2019-03-23T00:25:42.819Z,16.37
2019-03-23T00:28:09.663Z,475.87
2019-03-23T00:30:36.814Z,380.77
2019-03-23T00:33:03.660Z,6.15
2019-03-23T00:35:30.500Z,5.10
2019-03-23T00:37:57.344Z,5.90
2019-03-23T00:40:24.188Z,5.20
2019-03-23T00:42:51.338Z,5.00
2019-03-23T00:45:18.183Z,5.17
2019-03-23T00:47:45.641Z,4.33
2019-03-23T00:50:13.034Z,5.87
2019-03-23T00:52:39.942Z,5.65
2019-03-23T00:55:07.398Z,5.60
2019-03-23T00:57:34.243Z,4.60
2019-03-23T01:00:01.086Z,4.20
2019-03-23T01:02:27.930Z,6.10
2019-03-23T01:04:54.808Z,4.85
2019-03-23T01:07:21.617Z,5.03
2019-03-23T01:09:48.459Z,4.58
2019-03-23T01:12:15.609Z,4.47
2019-03-23T01:14:42.505Z,3.92
2019-03-23T01:17:09.303Z,4.53
2019-03-23T01:19:36.141Z,4.85
2019-03-23T01:22:02.983Z,5.12
2019-03-23T01:24:29.825Z,4.37
2019-03-23T01:26:56.978Z,5.30
2019-03-23T01:29:23.820Z,5.40
2019-03-23T01:31:50.665Z,6.58
2019-03-23T01:34:17.508Z,5.40
2019-03-23T01:36:44.354Z,6.45
2019-03-23T01:39:11.195Z,4.90
2019-03-23T01:41:38.039Z,5.60
2019-03-23T01:44:04.880Z,5.22
2019-03-23T01:46:31.730Z,4.70
2019-03-23T01:48:58.875Z,5.28
2019-03-23T01:51:25.718Z,3.70
2019-03-23T01:53:52.563Z,4.87
2019-03-23T01:56:19.405Z,5.37
2019-03-23T01:58:46.250Z,5.17
2019-03-23T02:01:13.401Z,7.30
2019-03-23T02:03:40.242Z,599.50
2019-03-23T02:06:07.086Z,426.43
2019-03-23T02:08:33.929Z,524.35
2019-03-23T02:11:00.772Z,575.12
2019-03-23T02:13:27.615Z,325.10
2019-03-23T02:15:54.461Z,383.30
2019-03-23T02:18:21.613Z,446.03
2019-03-23T02:20:48.925Z,417.45
2019-03-23T02:23:15.914Z,237.23
2019-03-23T02:25:43.063Z,112.47
2019-03-23T02:28:09.904Z,135.60
2019-03-23T02:30:37.056Z,17.12
2019-03-23T02:33:04.208Z,9.15
2019-03-23T02:35:31.050Z,7.45
2019-03-23T02:37:57.910Z,6.03
2019-03-23T02:40:24.773Z,5.20
2019-03-23T02:42:51.580Z,4.05
2019-03-23T02:45:19.038Z,3.90
2019-03-23T02:47:45.888Z,2.37
2019-03-23T02:50:12.789Z,4.20
2019-03-23T02:52:39.572Z,5.37
2019-03-23T02:55:08.145Z,3.72
2019-03-23T02:57:35.413Z,4.53
2019-03-23T03:00:04.399Z,3.63
2019-03-23T03:02:31.242Z,3.20
2019-03-23T03:04:58.097Z,4.45
2019-03-23T03:07:24.932Z,3.58
2019-03-23T03:09:51.772Z,3.98
2019-03-23T03:12:18.616Z,3.85
2019-03-23T03:14:45.459Z,3.87
2019-03-23T03:17:12.304Z,3.45
2019-03-23T03:19:39.147Z,4.53
2019-03-23T03:22:05.990Z,5.12
2019-03-23T03:24:32.835Z,5.23
2019-03-23T03:26:59.677Z,4.35
2019-03-23T03:29:26.532Z,4.00
2019-03-23T03:31:53.671Z,3.25
2019-03-23T03:34:20.515Z,4.42
2019-03-23T03:36:47.357Z,4.85
2019-03-23T03:39:14.210Z,4.22
2019-03-23T03:41:41.044Z,3.40
2019-03-23T03:44:07.886Z,3.40
2019-03-23T03:46:34.732Z,3.27
2019-03-23T03:49:11.806Z,4.40
2019-03-23T03:51:30.265Z,3.70
2019-03-23T03:53:57.414Z,3.90
2019-03-23T03:56:24.260Z,4.33
2019-03-23T03:58:51.105Z,2.90
2019-03-23T04:01:18.260Z,4.17
2019-03-23T04:03:45.098Z,4.00
2019-03-23T04:06:11.935Z,3.90
2019-03-23T04:08:39.107Z,3.80
2019-03-23T04:11:06.239Z,3.60
2019-03-23T04:13:33.079Z,3.30
2019-03-23T04:15:59.924Z,4.12
2019-03-23T04:18:26.768Z,3.50
2019-03-23T04:20:56.974Z,3.27
2019-03-23T04:23:23.849Z,3.40
2019-03-23T04:25:50.679Z,3.90
2019-03-23T04:28:17.519Z,4.22
2019-03-23T04:30:44.670Z,3.58
2019-03-23T04:33:11.515Z,3.47
2019-03-23T04:35:38.357Z,4.00
2019-03-23T04:38:05.511Z,4.22
2019-03-23T04:40:32.353Z,4.15
2019-03-23T04:42:59.194Z,2.95
2019-03-23T04:45:26.037Z,3.52
2019-03-23T04:47:52.880Z,3.70
2019-03-23T04:50:19.779Z,2.87
2019-03-23T04:52:46.877Z,2.60
2019-03-23T04:55:14.025Z,2.92
2019-03-23T04:57:41.183Z,3.30
2019-03-23T05:00:11.398Z,3.50
2019-03-23T05:02:38.242Z,3.17
2019-03-23T05:05:05.908Z,3.70
2019-03-23T05:07:32.850Z,3.25
2019-03-23T05:09:59.696Z,3.87
2019-03-23T05:12:26.537Z,2.83
2019-03-23T05:14:53.421Z,2.27
2019-03-23T05:17:20.224Z,3.37
2019-03-23T05:19:47.068Z,2.65
2019-03-23T05:22:14.221Z,2.55
2019-03-23T05:24:41.061Z,2.70
2019-03-23T05:27:07.905Z,2.75
2019-03-23T05:29:34.784Z,2.62
2019-03-23T05:32:01.592Z,3.12
2019-03-23T05:34:28.436Z,3.45
2019-03-23T05:36:55.247Z,2.60
2019-03-23T05:39:22.123Z,4.37
2019-03-23T05:41:48.966Z,3.70
2019-03-23T05:44:15.852Z,2.80
2019-03-23T05:46:42.652Z,3.45
2019-03-23T05:49:09.495Z,3.47
2019-03-23T05:51:36.338Z,3.22
2019-03-23T05:54:03.182Z,2.80
2019-03-23T05:56:30.026Z,3.83
2019-03-23T05:58:56.869Z,2.60
2019-03-23T06:01:23.712Z,252.55
2019-03-23T06:03:50.557Z,412.27
2019-03-23T06:06:17.399Z,442.55
2019-03-23T06:08:54.223Z,416.32
2019-03-23T06:11:12.929Z,461.17
2019-03-23T06:13:40.080Z,481.60
2019-03-23T06:16:06.926Z,493.10
2019-03-23T06:18:33.766Z,521.63
2019-03-23T06:21:00.610Z,507.90
2019-03-23T06:23:27.453Z,518.00
2019-03-23T06:25:54.297Z,510.48
2019-03-23T06:28:21.447Z,517.95
2019-03-23T06:30:48.293Z,508.90
2019-03-23T06:33:15.137Z,507.27
2019-03-23T06:35:41.984Z,491.35
2019-03-23T06:38:08.821Z,507.00
2019-03-23T06:40:35.664Z,480.05
2019-03-23T06:43:02.507Z,497.98
2019-03-23T06:45:29.262Z,496.50
2019-03-23T06:47:56.198Z,498.97
2019-03-23T06:50:23.041Z,499.27
2019-03-23T06:52:49.767Z,512.08
2019-03-23T06:55:16.724Z,525.50
2019-03-23T06:57:43.875Z,530.37
2019-03-23T07:00:13.485Z,527.25
2019-03-23T07:02:40.328Z,511.70
2019-03-23T07:05:08.320Z,524.20
2019-03-23T07:07:35.244Z,515.28
2019-03-23T07:10:07.003Z,544.13
2019-03-23T07:12:34.151Z,550.92
2019-03-23T07:15:00.995Z,588.75
2019-03-23T07:17:27.837Z,624.95
2019-03-23T07:19:54.734Z,635.20
2019-03-23T07:22:21.437Z,653.63
2019-03-23T07:24:48.369Z,618.70
2019-03-23T07:27:15.212Z,664.73
2019-03-23T07:29:42.057Z,636.33
2019-03-23T07:32:08.903Z,586.30
2019-03-23T07:34:35.747Z,614.00
2019-03-23T07:37:02.596Z,488.20
2019-03-23T07:39:30.469Z,487.60
2019-03-23T07:41:57.808Z,600.00
2019-03-23T07:44:24.654Z,743.77
2019-03-23T07:46:51.497Z,763.47
2019-03-23T07:49:18.338Z,767.37
2019-03-23T07:51:45.181Z,678.80
2019-03-23T07:54:12.026Z,665.98
2019-03-23T07:56:39.176Z,562.40
2019-03-23T07:59:06.019Z,611.35
2019-03-23T08:01:32.863Z,730.48
2019-03-23T08:04:00.013Z,808.65
2019-03-23T08:06:26.860Z,768.37
2019-03-23T08:08:53.700Z,780.27
2019-03-23T08:11:20.544Z,781.25
2019-03-23T08:13:47.386Z,836.03
2019-03-23T08:16:14.167Z,4.33
2019-03-23T08:18:41.073Z,4.40
2019-03-23T11:31:55.353Z,15.50
2019-03-23T11:34:22.094Z,135.25
2019-03-23T11:36:48.948Z,994.35
2019-03-23T11:39:15.783Z,999.90
2019-03-23T11:41:42.623Z,999.90
2019-03-23T11:44:09.466Z,999.90
2019-03-23T11:46:36.310Z,999.90
2019-03-23T11:49:03.154Z,999.90
2019-03-23T11:51:30.304Z,999.90
2019-03-23T11:53:57.148Z,999.90
2019-03-23T11:56:23.992Z,999.90
2019-03-23T11:58:51.141Z,999.90
2019-03-23T12:01:18.024Z,999.90
2019-03-23T12:03:44.830Z,991.80
2019-03-23T12:06:11.672Z,999.90
2019-03-23T12:08:38.517Z,999.90
2019-03-23T12:11:05.360Z,999.90
2019-03-23T12:13:32.202Z,999.90
2019-03-23T12:15:59.045Z,999.90
2019-03-23T12:18:25.889Z,999.90
2019-03-23T12:20:52.731Z,972.63
2019-03-23T12:23:19.575Z,999.90
2019-03-23T12:25:46.420Z,843.83
2019-03-23T12:28:13.569Z,999.90
2019-03-23T12:30:40.412Z,999.90
2019-03-23T12:33:07.259Z,999.90
2019-03-23T12:35:34.409Z,999.90
2019-03-23T12:38:01.256Z,999.90
2019-03-23T12:40:28.095Z,999.90
2019-03-23T12:42:54.938Z,998.70
2019-03-23T12:45:21.780Z,999.90
2019-03-23T12:47:48.623Z,999.90
2019-03-23T12:50:15.467Z,999.90
2019-03-23T12:52:42.312Z,999.90
2019-03-23T12:55:09.461Z,999.90
2019-03-23T12:57:36.304Z,999.90
2019-03-23T13:00:08.987Z,999.90
2019-03-23T13:02:36.442Z,999.90
2019-03-23T13:05:06.051Z,999.90
2019-03-23T13:07:32.894Z,999.90
2019-03-23T13:09:59.738Z,999.90
2019-03-23T13:12:26.615Z,999.90
2019-03-23T13:14:53.468Z,999.90
2019-03-23T13:17:20.267Z,999.90
2019-03-23T13:19:47.148Z,999.90
2019-03-23T13:22:13.954Z,999.90
2019-03-23T13:24:40.798Z,999.90
2019-03-23T13:27:07.640Z,999.90
2019-03-23T13:29:34.484Z,999.90
2019-03-23T13:32:01.328Z,999.90
2019-03-23T13:34:28.478Z,999.90
2019-03-23T13:36:55.321Z,999.90
2019-03-23T13:39:22.166Z,999.90
2019-03-23T13:41:49.622Z,999.90
2019-03-23T13:44:16.773Z,999.90
2019-03-23T13:46:43.617Z,999.90
2019-03-23T13:49:10.463Z,999.90
2019-03-23T13:51:37.304Z,999.90
2019-03-23T13:54:04.146Z,999.90
2019-03-23T13:56:30.990Z,999.90
2019-03-23T13:58:57.834Z,999.90
2019-03-23T14:01:24.679Z,999.90
2019-03-23T14:03:51.520Z,999.90
2019-03-23T14:06:18.364Z,999.90
2019-03-23T14:08:45.207Z,999.90
2019-03-23T14:11:12.051Z,999.90
2019-03-23T14:13:38.896Z,999.90
2019-03-23T14:16:05.737Z,999.90
2019-03-23T14:18:32.616Z,999.90
2019-03-23T14:20:59.427Z,999.90
2019-03-23T14:23:26.269Z,999.90
2019-03-23T14:25:53.111Z,999.90
2019-03-23T14:28:19.955Z,999.90
2019-03-23T14:30:46.800Z,999.90
2019-03-23T14:33:13.641Z,999.90
2019-03-23T14:35:40.484Z,999.90
2019-03-23T14:38:07.365Z,999.90
2019-03-23T14:40:34.171Z,999.90
2019-03-23T14:43:01.014Z,999.90
2019-03-23T14:45:27.858Z,999.90
2019-03-23T14:47:54.702Z,999.90
2019-03-23T14:50:21.548Z,999.90
2019-03-23T14:52:48.389Z,999.90
2019-03-23T14:55:15.233Z,999.90
2019-03-23T14:57:42.075Z,999.90
2019-03-23T15:00:09.703Z,999.90
2019-03-23T15:02:36.686Z,999.90
2019-03-23T15:05:05.859Z,977.17
2019-03-23T15:07:32.828Z,999.90
2019-03-23T15:09:59.672Z,999.90
2019-03-23T15:12:26.514Z,999.90
2019-03-23T15:14:53.358Z,999.90
2019-03-23T15:17:20.509Z,999.90
2019-03-23T15:19:47.358Z,999.90
2019-03-23T15:22:14.201Z,999.90
2019-03-23T15:24:41.046Z,999.90
2019-03-23T15:27:07.889Z,999.90
2019-03-23T15:29:34.729Z,999.90
2019-03-23T15:32:01.574Z,999.90
2019-03-23T15:34:28.413Z,999.90
2019-03-23T15:36:55.256Z,999.90
2019-03-23T15:44:15.485Z,303.35
2019-03-23T15:49:08.867Z,254.87
2019-03-23T15:51:35.702Z,345.40
2019-03-23T15:54:02.853Z,350.93
2019-03-23T15:56:29.698Z,478.82
2019-03-23T15:58:56.540Z,999.90
2019-03-23T16:01:23.386Z,999.90
2019-03-23T16:03:50.227Z,999.90
2019-03-23T16:06:17.299Z,999.90
2019-03-23T16:08:44.223Z,999.90
2019-03-23T16:11:11.064Z,999.90
2019-03-23T16:13:37.908Z,999.90
2019-03-23T16:16:04.750Z,999.90
2019-03-23T16:18:31.594Z,999.90
2019-03-23T16:20:58.438Z,999.90
2019-03-23T16:23:25.281Z,999.90
2019-03-23T16:25:52.124Z,999.90
2019-03-23T16:28:18.967Z,999.90
2019-03-23T16:33:12.695Z,98.90
2019-03-23T16:35:39.499Z,7.58
2019-03-23T16:38:06.648Z,7.10
2019-03-23T16:40:33.495Z,850.35
2019-03-23T16:43:00.335Z,5.22
2019-03-23T16:45:27.487Z,6.30
2019-03-23T16:47:55.115Z,6.37
2019-03-23T16:50:22.094Z,5.70
2019-03-23T16:52:48.938Z,6.55
2019-03-23T16:55:15.782Z,9.05
2019-03-23T16:57:42.668Z,8.88
2019-03-23T17:00:19.299Z,7.72
2019-03-23T17:02:46.142Z,7.28
2019-03-23T17:05:14.215Z,6.65
2019-03-23T17:07:41.365Z,6.67
2019-03-23T17:10:09.575Z,6.72
2019-03-23T17:12:36.587Z,7.05
2019-03-23T17:15:05.892Z,9.35
2019-03-23T17:19:59.268Z,999.90
2019-03-23T17:22:26.112Z,999.90
2019-03-23T17:24:52.954Z,999.90
2019-03-23T17:27:19.797Z,999.90
2019-03-23T17:29:46.647Z,115.60
2019-03-23T17:32:13.485Z,8.10
2019-03-23T17:34:40.329Z,347.45
2019-03-23T17:37:07.172Z,768.52
2019-03-23T17:39:34.156Z,213.03
2019-03-23T17:42:01.171Z,166.57
2019-03-23T19:39:44.395Z,6.30
2019-03-23T19:42:11.244Z,8.58
2019-03-23T19:44:38.390Z,7.25
2019-03-23T19:47:05.234Z,6.85
2019-03-23T19:49:32.075Z,7.03
2019-03-23T19:51:58.920Z,7.10
2019-03-23T19:54:25.764Z,7.95
2019-03-23T19:56:52.605Z,8.60
2019-03-23T19:59:19.449Z,8.05
2019-03-23T20:01:46.292Z,7.92
2019-03-23T20:04:13.136Z,6.97
2019-03-23T20:06:39.979Z,7.60
2019-03-23T20:09:08.051Z,7.73
2019-03-23T20:11:34.895Z,6.85
2019-03-23T20:14:01.738Z,7.00
2019-03-23T20:16:28.584Z,7.83
2019-03-23T20:18:55.464Z,10.43
2019-03-23T20:21:22.268Z,8.68
2019-03-23T20:23:51.162Z,8.33
2019-03-23T20:26:17.723Z,7.00
2019-03-23T20:28:44.647Z,7.17
2019-03-23T20:31:11.486Z,7.80
2019-03-23T20:33:38.328Z,5.95
2019-03-23T20:36:05.172Z,7.25
2019-03-23T20:38:32.015Z,8.05
2019-03-23T20:40:59.166Z,7.92
2019-03-23T20:43:26.009Z,7.95
2019-03-23T20:45:52.887Z,8.63
2019-03-23T20:48:19.736Z,5.58
2019-03-23T20:50:46.847Z,7.65
2019-03-23T20:53:14.920Z,7.40
2019-03-23T20:55:41.762Z,5.45
2019-03-23T20:58:08.607Z,7.42
2019-03-23T21:00:35.449Z,7.62
2019-03-23T21:03:02.294Z,8.68
2019-03-23T21:05:33.877Z,7.70
2019-03-23T21:07:57.826Z,9.23
2019-03-23T21:10:24.668Z,8.60
2019-03-23T21:12:51.516Z,11.63
2019-03-23T21:15:18.356Z,14.85
2019-03-23T21:17:51.044Z,13.50
2019-03-23T21:20:13.883Z,12.60
2019-03-23T21:22:40.727Z,11.97
2019-03-23T21:25:08.799Z,10.80
2019-03-23T21:27:35.642Z,8.70
2019-03-23T21:30:04.635Z,9.67
2019-03-23T21:32:31.786Z,8.68
2019-03-23T21:34:58.630Z,8.93
2019-03-23T21:37:25.486Z,7.83
2019-03-23T21:39:52.316Z,8.60
2019-03-23T21:42:19.160Z,8.40
2019-03-23T21:44:46.003Z,8.13
2019-03-23T21:47:13.461Z,6.45
2019-03-23T21:49:40.304Z,8.23
2019-03-23T21:52:07.133Z,7.85
2019-03-23T21:54:33.991Z,7.70
2019-03-23T21:57:00.837Z,8.35
2019-03-23T21:59:27.679Z,8.20
2019-03-23T22:01:54.624Z,7.20
2019-03-23T22:04:21.672Z,7.12
2019-03-23T22:06:48.521Z,6.70
2019-03-23T22:09:15.666Z,6.30
2019-03-23T22:11:42.509Z,7.03
2019-03-23T22:14:09.353Z,8.17
2019-03-23T22:16:36.199Z,22.20
2019-03-23T22:19:03.045Z,8.75
2019-03-23T22:21:30.194Z,8.23
2019-03-23T22:23:57.340Z,7.17
2019-03-23T22:26:24.185Z,7.40
2019-03-23T22:28:51.034Z,6.87
2019-03-23T22:31:17.871Z,7.25
2019-03-23T22:33:44.754Z,8.10
2019-03-23T22:36:11.559Z,8.95
2019-03-23T22:38:38.401Z,13.98
2019-03-23T22:41:05.248Z,7.60
2019-03-23T22:43:32.089Z,7.37
2019-03-23T22:45:58.934Z,8.35
2019-03-23T22:48:25.775Z,7.80
2019-03-23T22:50:52.618Z,6.60
2019-03-23T22:53:19.461Z,7.60
2019-03-23T22:55:46.305Z,6.30
2019-03-23T22:58:13.149Z,7.65
2019-03-23T23:00:43.681Z,7.65
2019-03-23T23:03:13.756Z,5.15
2019-03-23T23:05:40.747Z,5.83
2019-03-23T23:08:07.589Z,4.95
2019-03-23T23:10:34.738Z,6.15
2019-03-23T23:13:01.585Z,5.40
2019-03-23T23:15:28.425Z,5.15
2019-03-23T23:17:55.203Z,6.28
2019-03-23T23:20:22.118Z,5.58
2019-03-23T23:22:48.955Z,7.35
2019-03-23T23:25:15.800Z,17.30
2019-03-23T23:27:42.644Z,7.53
2019-03-23T23:30:10.974Z,9.43
2019-03-23T23:32:37.865Z,22.47
2019-03-23T23:35:07.075Z,12.37
2019-03-23T23:37:34.010Z,21.25
